Time;durP1;ratioP1;P1;durP2;ratioP2;P2;SDS_P1;SDS_P2;PMS_P1;PMS_P2;Temp;Humidity;BMP_temperature;BMP_pressure;BME280_temperature;BME280_humidity;BME280_pressure;Samples;Min_cycle;Max_cycle;Signal;HPM_P1;HPM_P2
2021/03/06 00:01:18;;;;;;;10.60;3.63;;;;;;;;;;4383261;32;20199;-73
2021/03/06 00:03:43;;;;;;;11.17;3.93;;;;;;;;;;4391284;32;20519;-73
2021/03/06 00:06:10;;;;;;;8.47;3.93;;;;;;;;;;4405430;32;20134;-73
2021/03/06 00:08:35;;;;;;;10.17;3.60;;;;;;;;;;4391209;32;20161;-73
2021/03/06 00:11:00;;;;;;;9.53;3.70;;;;;;;;;;4391270;32;20617;-73
2021/03/06 00:13:26;;;;;;;9.53;3.80;;;;;;;;;;4375804;32;20170;-73
2021/03/06 00:15:54;;;;;;;7.43;4.30;;;;;;;;;;4389333;32;20690;-73
2021/03/06 00:18:20;;;;;;;11.07;3.80;;;;;;;;;;4405459;32;20138;-73
2021/03/06 00:20:45;;;;;;;9.20;3.70;;;;;;;;;;4405373;32;20126;-73
2021/03/06 00:23:10;;;;;;;10.33;3.80;;;;;;;;;;4404697;32;20138;-73
2021/03/06 00:25:36;;;;;;;10.23;4.27;;;;;;;;;;4404635;32;20138;-73
2021/03/06 00:28:09;;;;;;;10.07;4.00;;;;;;;;;;4389680;32;20459;-73
2021/03/06 00:30:34;;;;;;;10.97;4.10;;;;;;;;;;4391437;32;20147;-73
2021/03/06 00:33:00;;;;;;;9.17;4.00;;;;;;;;;;4392753;32;20160;-73
2021/03/06 00:35:25;;;;;;;10.80;3.80;;;;;;;;;;4392547;32;20146;-73
2021/03/06 00:37:51;;;;;;;7.30;3.33;;;;;;;;;;4379863;32;20542;-73
2021/03/06 00:40:19;;;;;;;8.43;3.60;;;;;;;;;;4393174;32;20139;-73
2021/03/06 00:42:54;;;;;;;11.13;4.10;;;;;;;;;;4379324;32;20150;-73
2021/03/06 00:45:22;;;;;;;7.57;3.80;;;;;;;;;;4385738;32;20535;-74
2021/03/06 00:47:48;;;;;;;9.53;3.77;;;;;;;;;;4378832;32;20190;-73
2021/03/06 00:50:16;;;;;;;9.63;3.80;;;;;;;;;;4392969;32;20458;-73
2021/03/06 00:52:50;;;;;;;7.83;3.93;;;;;;;;;;4392658;32;20161;-73
2021/03/06 00:55:15;;;;;;;8.20;3.53;;;;;;;;;;4378962;32;20154;-74
2021/03/06 00:57:41;;;;;;;10.00;3.70;;;;;;;;;;4392279;32;20221;-75
2021/03/06 01:00:06;;;;;;;6.70;3.63;;;;;;;;;;4378779;32;20203;-75
2021/03/06 01:02:44;;;;;;;9.03;3.93;;;;;;;;;;4378707;32;20239;-74
2021/03/06 01:05:09;;;;;;;12.47;3.73;;;;;;;;;;4378888;32;20209;-75
2021/03/06 01:07:34;;;;;;;10.97;3.93;;;;;;;;;;4378473;32;20154;-74
2021/03/06 01:10:00;;;;;;;9.70;3.77;;;;;;;;;;4378577;32;20505;-75
2021/03/06 01:12:25;;;;;;;7.10;3.33;;;;;;;;;;4378847;32;20166;-75
2021/03/06 01:14:50;;;;;;;9.10;3.90;;;;;;;;;;4378678;32;20169;-74
2021/03/06 01:17:16;;;;;;;9.50;3.63;;;;;;;;;;4378916;32;20155;-75
2021/03/06 01:19:41;;;;;;;11.53;3.40;;;;;;;;;;4378998;32;20162;-74
2021/03/06 01:22:07;;;;;;;12.10;4.30;;;;;;;;;;4392006;32;20133;-73
2021/03/06 01:24:32;;;;;;;10.00;3.70;;;;;;;;;;4378265;32;20344;-74
2021/03/06 01:26:57;;;;;;;8.67;4.10;;;;;;;;;;4378691;32;20498;-74
2021/03/06 01:29:25;;;;;;;10.53;3.80;;;;;;;;;;4397992;32;20205;-74
2021/03/06 01:31:59;;;;;;;8.53;3.63;;;;;;;;;;4393096;32;20150;-74
2021/03/06 01:34:27;;;;;;;10.73;3.80;;;;;;;;;;4393336;32;20177;-74
2021/03/06 01:36:53;;;;;;;8.63;3.47;;;;;;;;;;4393007;32;20574;-74
2021/03/06 01:39:19;;;;;;;8.83;3.23;;;;;;;;;;4406850;32;20130;-74
2021/03/06 01:41:44;;;;;;;11.13;3.87;;;;;;;;;;4393181;32;20220;-74
2021/03/06 01:44:10;;;;;;;8.63;3.90;;;;;;;;;;4405129;32;20199;-74
2021/03/06 01:46:35;;;;;;;10.63;4.13;;;;;;;;;;4378319;32;20229;-74
2021/03/06 01:49:09;;;;;;;18.00;4.23;;;;;;;;;;4393115;32;20524;-73
2021/03/06 01:51:35;;;;;;;9.87;3.77;;;;;;;;;;4406850;32;20216;-73
2021/03/06 01:54:02;;;;;;;11.17;4.27;;;;;;;;;;4392519;32;20161;-73
2021/03/06 01:56:30;;;;;;;9.33;4.20;;;;;;;;;;4406533;32;20586;-73
2021/03/06 01:58:55;;;;;;;12.33;4.33;;;;;;;;;;4406679;32;20165;-74
2021/03/06 02:01:20;;;;;;;9.10;3.90;;;;;;;;;;4395865;32;20508;-73
2021/03/06 02:03:49;;;;;;;13.53;4.80;;;;;;;;;;4389729;32;20164;-75
2021/03/06 02:06:15;;;;;;;8.07;4.23;;;;;;;;;;4406861;32;20139;-74
2021/03/06 02:08:40;;;;;;;12.83;4.83;;;;;;;;;;4406951;32;20134;-74
2021/03/06 02:11:05;;;;;;;11.13;4.37;;;;;;;;;;4406721;32;20137;-74
2021/03/06 02:13:48;;;;;;;7.07;4.43;;;;;;;;;;4392588;32;20553;-73
2021/03/06 02:16:21;;;;;;;11.93;4.77;;;;;;;;;;4395492;32;20146;-73
2021/03/06 02:19:05;;;;;;;12.33;5.07;;;;;;;;;;4385723;32;20223;-74
2021/03/06 02:21:34;;;;;;;10.03;4.40;;;;;;;;;;4393065;32;20181;-73
2021/03/06 02:24:15;;;;;;;13.83;5.37;;;;;;;;;;4404338;32;20193;-74
2021/03/06 02:27:09;;;;;;;15.13;5.83;;;;;;;;;;4392207;32;20532;-73
2021/03/06 02:29:39;;;;;;;11.37;5.60;;;;;;;;;;4336753;32;20200;-73
2021/03/06 02:32:46;;;;;;;11.33;5.83;;;;;;;;;;4392827;32;20158;-73
2021/03/06 02:35:18;;;;;;;7.80;4.43;;;;;;;;;;4371466;32;20162;-73
2021/03/06 02:37:48;;;;;;;11.43;5.27;;;;;;;;;;4392502;32;20149;-73
2021/03/06 02:40:14;;;;;;;11.13;5.40;;;;;;;;;;4406357;32;20499;-73
2021/03/06 02:42:40;;;;;;;12.97;5.53;;;;;;;;;;4392617;32;20585;-73
2021/03/06 02:45:08;;;;;;;10.40;5.13;;;;;;;;;;4406051;32;20134;-73
2021/03/06 02:47:34;;;;;;;13.30;5.87;;;;;;;;;;4406420;32;20148;-74
2021/03/06 02:50:00;;;;;;;12.10;5.47;;;;;;;;;;4392121;32;20621;-73
2021/03/06 02:52:26;;;;;;;10.33;5.33;;;;;;;;;;4392156;32;20711;-73
2021/03/06 02:55:01;;;;;;;8.57;5.17;;;;;;;;;;4392209;32;20189;-73
2021/03/06 02:57:58;;;;;;;9.43;5.37;;;;;;;;;;4406408;32;20192;-73
2021/03/06 03:00:30;;;;;;;12.67;5.57;;;;;;;;;;4406155;32;20157;-73
2021/03/06 03:03:11;;;;;;;9.40;5.10;;;;;;;;;;4392311;32;20149;-73
2021/03/06 03:05:39;;;;;;;10.63;5.63;;;;;;;;;;4392104;32;20169;-73
2021/03/06 03:08:07;;;;;;;15.20;5.40;;;;;;;;;;4392068;32;20211;-73
2021/03/06 03:10:38;;;;;;;10.37;5.53;;;;;;;;;;4404691;32;20200;-73
2021/03/06 03:13:06;;;;;;;10.27;5.20;;;;;;;;;;4405631;32;20267;-73
2021/03/06 03:15:37;;;;;;;10.03;5.23;;;;;;;;;;4400824;32;20139;-73
2021/03/06 03:18:03;;;;;;;9.30;5.70;;;;;;;;;;4399504;32;20189;-72
2021/03/06 03:20:31;;;;;;;11.67;5.80;;;;;;;;;;4396219;32;20157;-73
2021/03/06 03:22:59;;;;;;;12.17;5.47;;;;;;;;;;4405094;32;20145;-73
2021/03/06 03:25:51;;;;;;;9.60;5.77;;;;;;;;;;4405402;32;20123;-73
2021/03/06 03:28:14;;;;;;;11.30;5.80;;;;;;;;;;4403876;32;20205;-73
2021/03/06 03:31:01;;;;;;;9.07;5.50;;;;;;;;;;4383819;32;20196;-72
2021/03/06 03:33:29;;;;;;;7.90;5.47;;;;;;;;;;4404701;32;20255;-73
2021/03/06 03:35:55;;;;;;;10.13;5.80;;;;;;;;;;4389737;32;20587;-73
2021/03/06 03:38:21;;;;;;;8.13;5.77;;;;;;;;;;4405736;32;20256;-73
2021/03/06 03:40:59;;;;;;;10.80;5.27;;;;;;;;;;4391576;32;20154;-72
2021/03/06 03:43:25;;;;;;;10.37;5.40;;;;;;;;;;4403035;32;20195;-75
2021/03/06 03:45:54;;;;;;;13.13;5.93;;;;;;;;;;4391454;32;20564;-74
2021/03/06 03:48:21;;;;;;;7.90;5.60;;;;;;;;;;4391145;32;20591;-74
2021/03/06 03:50:46;;;;;;;10.30;6.00;;;;;;;;;;4405406;32;20156;-74
2021/03/06 03:53:11;;;;;;;11.77;5.50;;;;;;;;;;4377676;32;20485;-74
2021/03/06 03:55:37;;;;;;;14.63;6.40;;;;;;;;;;4401268;32;20131;-73
2021/03/06 03:58:02;;;;;;;12.07;5.60;;;;;;;;;;4405383;32;20571;-74
2021/03/06 04:00:28;;;;;;;11.00;5.97;;;;;;;;;;4392475;32;20188;-73
2021/03/06 04:02:53;;;;;;;9.80;5.27;;;;;;;;;;4390922;32;20154;-73
2021/03/06 04:05:18;;;;;;;10.83;5.83;;;;;;;;;;4406490;32;20482;-73
2021/03/06 04:07:47;;;;;;;9.60;5.40;;;;;;;;;;4391574;32;20265;-73
2021/03/06 04:10:15;;;;;;;14.83;6.37;;;;;;;;;;4391017;32;20554;-73
2021/03/06 04:12:43;;;;;;;10.63;5.80;;;;;;;;;;4391072;32;20169;-73
2021/03/06 04:15:10;;;;;;;13.37;6.50;;;;;;;;;;4391203;32;20185;-73
2021/03/06 04:17:35;;;;;;;12.63;6.63;;;;;;;;;;4405308;32;20200;-74
2021/03/06 04:20:37;;;;;;;;;;;;;;;;;;;;;
2021/03/06 04:23:03;;;;;;;15.47;6.30;;;;;;;;;;4389552;32;20227;-73
2021/03/06 04:25:28;;;;;;;11.00;6.37;;;;;;;;;;4375915;32;20166;-73
2021/03/06 04:27:53;;;;;;;10.17;6.10;;;;;;;;;;4376020;32;20162;-73
2021/03/06 04:30:19;;;;;;;15.50;7.30;;;;;;;;;;4381094;32;20150;-73
2021/03/06 04:32:44;;;;;;;18.13;6.70;;;;;;;;;;4391493;32;20165;-74
2021/03/06 04:35:10;;;;;;;11.47;6.83;;;;;;;;;;4391353;32;20169;-73
2021/03/06 04:37:36;;;;;;;16.13;7.60;;;;;;;;;;4404820;32;20196;-74
2021/03/06 04:40:02;;;;;;;13.17;7.60;;;;;;;;;;4390921;32;20488;-74
2021/03/06 04:42:27;;;;;;;15.23;8.37;;;;;;;;;;4404466;32;20217;-74
2021/03/06 04:44:52;;;;;;;13.23;7.30;;;;;;;;;;4390879;32;20204;-73
2021/03/06 04:47:27;;;;;;;14.77;7.23;;;;;;;;;;4405025;32;20217;-74
2021/03/06 04:49:59;;;;;;;13.23;6.97;;;;;;;;;;4405328;32;20167;-73
2021/03/06 04:52:28;;;;;;;21.00;7.73;;;;;;;;;;4404820;32;20165;-73
2021/03/06 04:54:53;;;;;;;16.07;8.00;;;;;;;;;;4390656;32;20193;-74
2021/03/06 04:57:18;;;;;;;12.90;7.70;;;;;;;;;;4404750;32;20220;-73
2021/03/06 04:59:43;;;;;;;13.93;7.40;;;;;;;;;;4390704;32;20638;-73
2021/03/06 05:02:09;;;;;;;19.93;8.33;;;;;;;;;;4392877;32;20552;-73
2021/03/06 05:04:37;;;;;;;16.70;9.67;;;;;;;;;;4377654;32;20170;-74
2021/03/06 05:07:03;;;;;;;11.57;8.43;;;;;;;;;;4390711;32;20213;-75
2021/03/06 05:09:28;;;;;;;14.43;8.43;;;;;;;;;;4404573;32;20473;-74
2021/03/06 05:11:53;;;;;;;16.97;8.80;;;;;;;;;;4404562;32;20467;-74
2021/03/06 05:14:19;;;;;;;16.87;9.50;;;;;;;;;;4390813;32;20525;-74
2021/03/06 05:16:44;;;;;;;18.93;10.50;;;;;;;;;;4392577;32;20177;-74
2021/03/06 05:19:13;;;;;;;15.10;9.20;;;;;;;;;;4408752;32;20125;-74
2021/03/06 05:21:38;;;;;;;19.80;9.57;;;;;;;;;;4407429;32;20130;-74
2021/03/06 05:24:04;;;;;;;14.73;9.17;;;;;;;;;;4408095;32;20228;-74
2021/03/06 05:26:35;;;;;;;19.60;10.83;;;;;;;;;;4393717;32;20181;-73
2021/03/06 05:29:00;;;;;;;20.23;11.47;;;;;;;;;;4408434;32;20133;-73
2021/03/06 05:31:25;;;;;;;23.27;12.60;;;;;;;;;;4407337;32;20547;-73
2021/03/06 05:33:50;;;;;;;16.40;10.27;;;;;;;;;;4393750;32;20233;-73
2021/03/06 05:36:16;;;;;;;20.70;11.20;;;;;;;;;;4393525;32;20159;-73
2021/03/06 05:38:41;;;;;;;20.70;11.10;;;;;;;;;;4393317;32;20154;-73
2021/03/06 05:41:06;;;;;;;27.77;13.37;;;;;;;;;;4407192;32;20130;-73
2021/03/06 05:43:32;;;;;;;22.53;12.17;;;;;;;;;;4408001;32;20209;-74
2021/03/06 05:45:57;;;;;;;21.63;12.73;;;;;;;;;;4391355;32;20724;-74
2021/03/06 05:48:23;;;;;;;19.20;11.67;;;;;;;;;;4403522;32;20191;-74
2021/03/06 05:50:49;;;;;;;24.23;13.53;;;;;;;;;;4393333;32;20180;-74
2021/03/06 05:53:20;;;;;;;22.40;11.80;;;;;;;;;;4393445;32;20180;-74
2021/03/06 05:55:51;;;;;;;23.43;12.20;;;;;;;;;;4393129;32;20173;-73
2021/03/06 05:58:17;;;;;;;20.37;12.33;;;;;;;;;;4392969;32;20146;-74
2021/03/06 06:00:43;;;;;;;23.27;13.70;;;;;;;;;;4393284;32;20250;-74
2021/03/06 06:03:09;;;;;;;26.43;14.87;;;;;;;;;;4393757;32;20166;-74
2021/03/06 06:05:35;;;;;;;19.20;13.47;;;;;;;;;;4393255;32;20495;-74
2021/03/06 06:08:01;;;;;;;24.13;14.10;;;;;;;;;;4392890;32;20456;-74
2021/03/06 06:10:26;;;;;;;25.33;14.97;;;;;;;;;;4392685;32;20253;-74
2021/03/06 06:12:52;;;;;;;24.10;15.50;;;;;;;;;;4406425;32;20512;-73
2021/03/06 06:15:19;;;;;;;20.33;13.57;;;;;;;;;;4392502;32;20232;-74
2021/03/06 06:17:45;;;;;;;22.67;14.77;;;;;;;;;;4406668;32;20212;-73
2021/03/06 06:20:10;;;;;;;26.33;14.43;;;;;;;;;;4406372;32;20138;-73
2021/03/06 06:22:35;;;;;;;23.10;14.23;;;;;;;;;;4406846;32;20131;-74
2021/03/06 06:25:01;;;;;;;21.07;14.50;;;;;;;;;;4392606;32;20200;-74
2021/03/06 06:27:26;;;;;;;29.70;17.70;;;;;;;;;;4405589;32;20255;-74
2021/03/06 06:29:52;;;;;;;28.43;15.87;;;;;;;;;;4392368;32;20157;-73
2021/03/06 06:32:20;;;;;;;28.63;16.43;;;;;;;;;;4406410;32;20146;-73
2021/03/06 06:34:56;;;;;;;22.17;14.90;;;;;;;;;;4392320;32;20233;-73
2021/03/06 06:37:21;;;;;;;29.53;18.47;;;;;;;;;;4406142;32;20152;-73
2021/03/06 06:39:47;;;;;;;34.77;17.80;;;;;;;;;;4392492;32;20154;-73
2021/03/06 06:42:12;;;;;;;29.30;17.20;;;;;;;;;;4392479;32;20181;-74
2021/03/06 06:44:41;;;;;;;36.73;17.40;;;;;;;;;;4393097;32;20209;-75
2021/03/06 06:47:13;;;;;;;28.17;18.20;;;;;;;;;;4392172;32;20181;-73
2021/03/06 06:49:48;;;;;;;33.33;17.70;;;;;;;;;;4406125;32;20535;-73
2021/03/06 06:52:17;;;;;;;29.30;18.50;;;;;;;;;;4406418;32;20511;-74
2021/03/06 06:54:53;;;;;;;34.23;19.30;;;;;;;;;;4391998;32;20197;-74
2021/03/06 06:57:21;;;;;;;27.77;15.97;;;;;;;;;;4405779;32;20145;-74
2021/03/06 06:59:58;;;;;;;30.63;17.80;;;;;;;;;;4405359;32;20134;-73
2021/03/06 07:02:25;;;;;;;27.13;17.40;;;;;;;;;;4390743;32;20594;-74
2021/03/06 07:04:53;;;;;;;32.17;18.17;;;;;;;;;;4376753;32;20154;-74
2021/03/06 07:07:19;;;;;;;27.50;16.93;;;;;;;;;;4377143;32;20180;-74
2021/03/06 07:09:53;;;;;;;40.17;22.40;;;;;;;;;;4391297;32;20127;-74
2021/03/06 07:12:19;;;;;;;42.87;21.80;;;;;;;;;;4377603;32;20220;-74
2021/03/06 07:14:44;;;;;;;50.37;21.30;;;;;;;;;;4377310;32;20234;-74
2021/03/06 07:17:19;;;;;;;26.27;17.70;;;;;;;;;;4390459;32;20126;-74
2021/03/06 07:19:45;;;;;;;42.03;20.60;;;;;;;;;;4382428;32;20150;-73
2021/03/06 07:22:12;;;;;;;74.90;25.00;;;;;;;;;;4391828;32;20189;-74
2021/03/06 07:24:43;;;;;;;30.47;18.00;;;;;;;;;;4391860;32;20188;-74
2021/03/06 07:27:22;;;;;;;79.20;25.70;;;;;;;;;;4392096;32;20151;-74
2021/03/06 07:29:47;;;;;;;24.07;17.20;;;;;;;;;;4379909;32;20181;-73
2021/03/06 07:32:14;;;;;;;43.07;21.90;;;;;;;;;;4384012;32;20190;-74
2021/03/06 07:34:40;;;;;;;25.90;17.07;;;;;;;;;;4383090;32;20208;-73
2021/03/06 07:37:06;;;;;;;62.67;24.03;;;;;;;;;;4376364;32;20493;-75
2021/03/06 07:39:50;;;;;;;30.53;16.93;;;;;;;;;;4376345;32;20224;-75
2021/03/06 07:42:32;;;;;;;25.97;18.37;;;;;;;;;;4376402;32;20143;-74
2021/03/06 07:45:05;;;;;;;29.50;18.23;;;;;;;;;;4376708;32;20151;-75
2021/03/06 07:47:33;;;;;;;27.60;18.87;;;;;;;;;;4376340;32;20505;-76
2021/03/06 07:50:09;;;;;;;17.90;15.07;;;;;;;;;;4376213;32;20150;-74
2021/03/06 07:52:39;;;;;;;22.13;15.03;;;;;;;;;;4376778;32;20146;-74
2021/03/06 07:55:08;;;;;;;25.30;16.27;;;;;;;;;;4375987;32;20170;-73
2021/03/06 07:57:53;;;;;;;19.77;15.37;;;;;;;;;;4375967;32;20193;-74
2021/03/06 08:03:27;;;;;;;18.47;12.07;;;;;;;;;;4387104;32;20220;-74
2021/03/06 08:06:27;;;;;;;23.20;15.03;;;;;;;;;;4375665;32;20193;-74
2021/03/06 08:09:12;;;;;;;20.27;11.53;;;;;;;;;;4330669;33;20154;-74
2021/03/06 08:11:41;;;;;;;14.83;11.27;;;;;;;;;;4330971;33;20178;-75
2021/03/06 08:14:25;;;;;;;16.03;10.87;;;;;;;;;;4366137;32;20216;-74
2021/03/06 08:16:51;;;;;;;15.37;11.03;;;;;;;;;;4375981;32;20454;-75
2021/03/06 08:19:19;;;;;;;12.73;7.63;;;;;;;;;;4376523;32;20211;-74
2021/03/06 08:21:47;;;;;;;11.93;7.53;;;;;;;;;;4390712;32;20137;-74
2021/03/06 08:24:15;;;;;;;9.60;7.00;;;;;;;;;;4375912;32;20154;-75
2021/03/06 08:26:43;;;;;;;9.87;7.07;;;;;;;;;;4375917;32;20180;-75
2021/03/06 08:29:24;;;;;;;14.20;7.03;;;;;;;;;;4374873;32;20180;-75
2021/03/06 08:32:02;;;;;;;14.00;6.40;;;;;;;;;;4377276;32;20166;-75
2021/03/06 08:34:38;;;;;;;9.70;6.13;;;;;;;;;;4390095;32;20508;-74
2021/03/06 08:37:16;;;;;;;13.73;5.40;;;;;;;;;;4390389;32;20126;-74
2021/03/06 08:39:58;;;;;;;11.30;5.57;;;;;;;;;;4388466;32;20184;-75
2021/03/06 08:42:39;;;;;;;10.10;4.30;;;;;;;;;;4389998;32;20138;-75
2021/03/06 08:45:07;;;;;;;8.97;5.20;;;;;;;;;;4388427;32;20235;-74
2021/03/06 08:47:41;;;;;;;9.77;4.63;;;;;;;;;;4387918;32;20239;-75
2021/03/06 08:50:16;;;;;;;9.53;4.63;;;;;;;;;;4388533;32;20161;-76
2021/03/06 08:52:52;;;;;;;8.80;3.50;;;;;;;;;;4391135;32;20176;-71
2021/03/06 08:58:18;;;;;;;7.80;4.17;;;;;;;;;;4365739;32;20148;-74
2021/03/06 09:00:45;;;;;;;7.63;3.30;;;;;;;;;;4392010;32;20216;-74
2021/03/06 09:03:17;;;;;;;11.90;4.17;;;;;;;;;;4390960;32;20150;-75
2021/03/06 09:05:43;;;;;;;9.33;3.80;;;;;;;;;;4391421;32;20290;-74
2021/03/06 09:08:08;;;;;;;9.17;2.60;;;;;;;;;;4390852;32;20253;-75
2021/03/06 09:10:36;;;;;;;5.10;3.40;;;;;;;;;;4391330;32;20158;-74
2021/03/06 09:13:13;;;;;;;;;;;;;;;;;;;;;
2021/03/06 09:15:39;;;;;;;6.63;2.97;;;;;;;;;;4388541;32;20159;-74
2021/03/06 09:18:05;;;;;;;6.63;2.47;;;;;;;;;;4392197;32;20527;-74
2021/03/06 09:20:32;;;;;;;10.20;2.70;;;;;;;;;;4390579;32;20188;-75
2021/03/06 09:22:58;;;;;;;10.43;2.97;;;;;;;;;;4392104;32;20156;-74
2021/03/06 09:25:41;;;;;;;7.83;2.60;;;;;;;;;;4390466;32;20159;-74
2021/03/06 09:28:20;;;;;;;6.23;2.67;;;;;;;;;;4392103;32;20200;-75
2021/03/06 09:30:46;;;;;;;6.50;2.70;;;;;;;;;;4386086;32;20602;-72
2021/03/06 09:33:21;;;;;;;7.73;2.87;;;;;;;;;;4377960;32;20170;-75
2021/03/06 09:36:13;;;;;;;5.57;2.50;;;;;;;;;;4378350;32;20189;-74
2021/03/06 09:38:43;;;;;;;7.83;2.73;;;;;;;;;;4389019;32;20197;-74
2021/03/06 09:41:09;;;;;;;6.57;2.23;;;;;;;;;;4407100;32;20172;-74
2021/03/06 09:43:35;;;;;;;9.90;2.53;;;;;;;;;;4407014;32;20539;-75
2021/03/06 09:46:01;;;;;;;7.63;2.00;;;;;;;;;;4379242;32;20189;-74
2021/03/06 09:48:38;;;;;;;8.37;2.60;;;;;;;;;;4392977;32;20170;-75
2021/03/06 09:51:15;;;;;;;10.17;3.00;;;;;;;;;;4405962;32;20158;-72
2021/03/06 09:53:41;;;;;;;11.93;2.80;;;;;;;;;;4407022;32;20133;-74
2021/03/06 09:56:06;;;;;;;6.87;2.20;;;;;;;;;;4392481;32;20159;-74
2021/03/06 09:58:31;;;;;;;9.70;2.60;;;;;;;;;;4392783;32;20151;-73
2021/03/06 10:01:10;;;;;;;9.80;2.90;;;;;;;;;;4406607;32;20160;-74
2021/03/06 10:03:48;;;;;;;8.23;2.50;;;;;;;;;;4406149;32;20148;-75
2021/03/06 10:06:15;;;;;;;9.63;2.53;;;;;;;;;;4406931;32;20576;-76
2021/03/06 10:08:45;;;;;;;11.73;2.90;;;;;;;;;;4393392;32;20173;-74
2021/03/06 10:11:13;;;;;;;9.37;2.57;;;;;;;;;;4392707;32;20185;-75
2021/03/06 10:13:47;;;;;;;12.50;3.10;;;;;;;;;;4392683;32;20158;-75
2021/03/06 10:16:14;;;;;;;6.13;1.90;;;;;;;;;;4392223;32;20572;-75
2021/03/06 10:18:40;;;;;;;4.70;2.00;;;;;;;;;;4392494;32;20155;-75
2021/03/06 10:21:09;;;;;;;4.17;2.07;;;;;;;;;;4405675;32;20134;-72
2021/03/06 10:23:35;;;;;;;10.97;1.93;;;;;;;;;;4392666;32;20609;-75
2021/03/06 10:26:15;;;;;;;9.80;1.87;;;;;;;;;;4392358;32;20159;-75
2021/03/06 10:28:41;;;;;;;10.50;1.63;;;;;;;;;;4392219;32;20501;-75
2021/03/06 10:31:23;;;;;;;4.20;1.70;;;;;;;;;;4391929;32;20153;-74
2021/03/06 10:33:49;;;;;;;5.87;2.30;;;;;;;;;;4389849;32;20167;-74
2021/03/06 10:36:16;;;;;;;9.10;1.87;;;;;;;;;;4390194;32;20227;-74
2021/03/06 10:38:41;;;;;;;6.50;1.80;;;;;;;;;;4389421;32;20162;-75
2021/03/06 10:41:14;;;;;;;12.73;2.73;;;;;;;;;;4389461;32;20649;-74
2021/03/06 10:43:40;;;;;;;6.03;2.00;;;;;;;;;;4389593;32;20161;-75
2021/03/06 10:46:12;;;;;;;9.20;2.07;;;;;;;;;;4383810;32;20277;-75
2021/03/06 10:48:38;;;;;;;6.37;1.67;;;;;;;;;;4387818;32;20249;-74
2021/03/06 10:51:03;;;;;;;4.20;1.63;;;;;;;;;;4389360;32;20193;-74
2021/03/06 10:53:31;;;;;;;11.87;2.17;;;;;;;;;;4389117;32;20158;-74
2021/03/06 10:56:04;;;;;;;7.60;1.77;;;;;;;;;;4389399;32;20151;-74
2021/03/06 10:58:57;;;;;;;4.80;1.60;;;;;;;;;;4389488;32;20166;-74
2021/03/06 11:01:23;;;;;;;10.47;1.93;;;;;;;;;;4389225;32;20180;-74
2021/03/06 11:03:49;;;;;;;4.67;1.77;;;;;;;;;;4388992;32;20229;-75
2021/03/06 11:06:25;;;;;;;7.80;1.50;;;;;;;;;;4389036;32;20163;-76
2021/03/06 11:09:08;;;;;;;3.67;1.10;;;;;;;;;;4390120;32;20291;-75
2021/03/06 11:11:33;;;;;;;6.80;1.70;;;;;;;;;;4373868;32;20209;-75
2021/03/06 11:14:19;;;;;;;4.30;1.57;;;;;;;;;;4374668;32;20158;-75
2021/03/06 11:16:54;;;;;;;5.50;1.07;;;;;;;;;;4374722;32;20293;-74
2021/03/06 11:19:33;;;;;;;3.33;0.73;;;;;;;;;;4374134;32;20185;-75
2021/03/06 11:21:58;;;;;;;2.40;0.80;;;;;;;;;;4375504;32;20142;-75
2021/03/06 11:24:24;;;;;;;4.60;0.93;;;;;;;;;;4389092;32;20134;-74
2021/03/06 11:26:49;;;;;;;9.37;1.20;;;;;;;;;;4388713;32;20181;-76
2021/03/06 11:29:14;;;;;;;4.40;1.00;;;;;;;;;;4388663;32;20155;-74
2021/03/06 11:31:40;;;;;;;2.03;1.03;;;;;;;;;;4390249;32;20177;-76
2021/03/06 11:34:06;;;;;;;1.60;0.80;;;;;;;;;;4391475;32;20169;-74
2021/03/06 11:36:31;;;;;;;2.42;1.05;;;;;;;;;;4389646;32;20565;-74
2021/03/06 11:38:59;;;;;;;2.65;0.80;;;;;;;;;;4390484;32;20154;-75
2021/03/06 11:41:24;;;;;;;4.18;0.95;;;;;;;;;;4391196;32;20166;-76
2021/03/06 11:43:50;;;;;;;3.62;0.80;;;;;;;;;;4391108;32;20154;-77
2021/03/06 11:46:15;;;;;;;2.10;0.85;;;;;;;;;;4391272;32;20185;-75
2021/03/06 11:48:40;;;;;;;3.25;1.00;;;;;;;;;;4390648;32;20192;-75
2021/03/06 11:51:05;;;;;;;4.30;0.90;;;;;;;;;;4391392;32;20546;-74
2021/03/06 11:53:31;;;;;;;4.85;1.08;;;;;;;;;;4404522;32;20212;-75
2021/03/06 11:55:56;;;;;;;3.03;1.25;;;;;;;;;;4390918;32;20158;-74
2021/03/06 11:58:24;;;;;;;4.95;0.90;;;;;;;;;;4391298;32;20183;-75
2021/03/06 12:00:52;;;;;;;4.07;0.82;;;;;;;;;;4390700;32;20184;-76
2021/03/06 12:03:18;;;;;;;3.15;1.00;;;;;;;;;;4390881;32;20583;-74
2021/03/06 12:05:43;;;;;;;3.80;1.10;;;;;;;;;;4390487;32;20220;-76
2021/03/06 12:08:09;;;;;;;2.15;0.80;;;;;;;;;;4404684;32;20527;-74
2021/03/06 12:10:34;;;;;;;4.18;1.12;;;;;;;;;;4390311;32;20591;-74
2021/03/06 12:12:59;;;;;;;3.62;1.10;;;;;;;;;;4390943;32;20192;-76
2021/03/06 12:15:25;;;;;;;3.70;1.10;;;;;;;;;;4391431;32;20198;-75
2021/03/06 12:17:54;;;;;;;5.57;1.65;;;;;;;;;;4389190;32;20583;-76
2021/03/06 12:20:30;;;;;;;;;;;;;;;;;;;;;
2021/03/06 12:23:04;;;;;;;7.12;1.90;;;;;;;;;;4391307;32;20138;-77
2021/03/06 12:25:58;;;;;;;7.33;1.40;;;;;;;;;;4390198;32;20450;-75
2021/03/06 12:28:18;;;;;;;2.10;1.17;;;;;;;;;;4400848;32;20479;-76
2021/03/06 12:30:58;;;;;;;4.05;1.45;;;;;;;;;;4391062;32;20189;-74
2021/03/06 12:33:32;;;;;;;4.20;1.05;;;;;;;;;;4398543;32;20199;-76
2021/03/06 12:36:08;;;;;;;4.50;1.30;;;;;;;;;;4392116;32;20139;-75
2021/03/06 12:38:33;;;;;;;2.57;1.10;;;;;;;;;;4386825;32;20487;-75
2021/03/06 12:41:16;;;;;;;3.07;1.00;;;;;;;;;;4391365;32;20157;-76
2021/03/06 12:43:52;;;;;;;2.73;1.13;;;;;;;;;;4375958;32;20618;-76
2021/03/06 12:46:17;;;;;;;3.13;0.90;;;;;;;;;;4375751;32;20177;-75
2021/03/06 12:48:43;;;;;;;1.87;0.73;;;;;;;;;;4375431;32;20193;-76
2021/03/06 12:51:10;;;;;;;5.30;1.58;;;;;;;;;;4375422;32;20150;-76
2021/03/06 12:53:41;;;;;;;4.40;0.90;;;;;;;;;;4375889;32;20162;-76
2021/03/06 12:56:06;;;;;;;1.00;0.80;;;;;;;;;;4375824;32;20171;-76
2021/03/06 12:58:32;;;;;;;2.45;1.02;;;;;;;;;;4376082;32;20162;-74
2021/03/06 13:00:57;;;;;;;4.57;1.02;;;;;;;;;;4376026;32;20177;-76
2021/03/06 13:03:22;;;;;;;2.17;1.17;;;;;;;;;;4375424;32;20216;-75
2021/03/06 13:05:48;;;;;;;2.83;1.42;;;;;;;;;;4375492;32;20159;-75
2021/03/06 13:08:20;;;;;;;2.83;0.77;;;;;;;;;;4390330;32;20115;-76
2021/03/06 13:10:46;;;;;;;1.75;0.70;;;;;;;;;;4374728;32;20150;-75
2021/03/06 13:13:14;;;;;;;6.97;1.87;;;;;;;;;;4374597;32;20257;-75
2021/03/06 13:15:50;;;;;;;;;;;;;;;;;;;;;
2021/03/06 13:18:16;;;;;;;5.05;1.25;;;;;;;;;;4389479;32;20135;-77
2021/03/06 13:20:44;;;;;;;2.10;1.20;;;;;;;;;;4386482;32;20579;-76
2021/03/06 13:23:09;;;;;;;1.37;0.80;;;;;;;;;;4389624;32;20599;-77
2021/03/06 13:25:40;;;;;;;2.28;1.05;;;;;;;;;;4390216;32;20174;-77
2021/03/06 13:28:12;;;;;;;4.32;0.90;;;;;;;;;;4390770;32;20185;-76
2021/03/06 13:30:40;;;;;;;3.78;1.50;;;;;;;;;;4402984;32;20502;-77
2021/03/06 13:33:09;;;;;;;1.75;1.00;;;;;;;;;;4390669;32;20232;-77
2021/03/06 13:35:34;;;;;;;2.47;1.05;;;;;;;;;;4381800;32;20154;-73
2021/03/06 13:37:59;;;;;;;3.95;1.37;;;;;;;;;;4392091;32;20512;-75
2021/03/06 13:40:25;;;;;;;4.45;1.30;;;;;;;;;;4383000;32;20162;-75
2021/03/06 13:42:51;;;;;;;1.87;0.90;;;;;;;;;;4378101;32;20158;-77
2021/03/06 13:45:20;;;;;;;2.67;1.10;;;;;;;;;;4378190;32;20215;-77
2021/03/06 13:47:56;;;;;;;2.63;1.30;;;;;;;;;;4377638;32;20212;-77
2021/03/06 13:50:29;;;;;;;4.40;1.25;;;;;;;;;;4378363;32;20158;-77
2021/03/06 13:52:59;;;;;;;4.07;1.00;;;;;;;;;;4378008;32;20521;-77
2021/03/06 13:55:27;;;;;;;5.78;1.77;;;;;;;;;;4391357;32;20183;-74
2021/03/06 13:57:52;;;;;;;2.28;1.10;;;;;;;;;;4379496;32;20167;-76
2021/03/06 14:00:18;;;;;;;2.22;1.00;;;;;;;;;;4406372;32;20163;-76
2021/03/06 14:02:44;;;;;;;6.07;1.20;;;;;;;;;;4406654;32;20153;-75
2021/03/06 14:05:10;;;;;;;3.58;1.02;;;;;;;;;;4392482;32;20185;-76
2021/03/06 14:07:38;;;;;;;2.10;0.90;;;;;;;;;;4392050;32;20591;-78
2021/03/06 14:10:04;;;;;;;3.58;0.82;;;;;;;;;;4384949;32;20321;-76
2021/03/06 14:12:30;;;;;;;1.85;0.80;;;;;;;;;;4376934;32;20632;-75
2021/03/06 14:15:05;;;;;;;4.30;1.30;;;;;;;;;;4379333;32;20159;-75
2021/03/06 14:17:41;;;;;;;5.40;1.20;;;;;;;;;;4393265;32;20575;-73
2021/03/06 14:20:09;;;;;;;1.45;0.90;;;;;;;;;;4392825;32;20221;-75
2021/03/06 14:22:36;;;;;;;2.35;1.02;;;;;;;;;;4385192;32;20166;-75
2021/03/06 14:25:01;;;;;;;3.53;0.95;;;;;;;;;;4377245;32;20494;-74
2021/03/06 14:27:27;;;;;;;4.50;0.90;;;;;;;;;;4377614;32;20155;-73
2021/03/06 14:29:52;;;;;;;3.80;1.23;;;;;;;;;;4379009;32;20158;-75
2021/03/06 14:32:22;;;;;;;1.83;1.25;;;;;;;;;;4392095;32;20178;-74
2021/03/06 14:34:47;;;;;;;1.62;1.10;;;;;;;;;;4392205;32;20622;-75
2021/03/06 14:37:12;;;;;;;3.53;1.50;;;;;;;;;;4392723;32;20194;-75
2021/03/06 14:39:38;;;;;;;3.85;1.27;;;;;;;;;;4392412;32;20161;-75
2021/03/06 14:42:04;;;;;;;3.33;1.23;;;;;;;;;;4392563;32;20594;-75
2021/03/06 14:44:29;;;;;;;4.47;1.52;;;;;;;;;;4392329;32;20232;-76
2021/03/06 14:46:54;;;;;;;6.20;1.70;;;;;;;;;;4389430;32;20174;-75
2021/03/06 14:49:20;;;;;;;3.15;1.45;;;;;;;;;;4379301;32;20150;-75
2021/03/06 14:51:45;;;;;;;3.92;1.40;;;;;;;;;;4405952;32;20497;-75
2021/03/06 14:54:18;;;;;;;2.92;1.58;;;;;;;;;;4405722;32;20625;-75
2021/03/06 14:56:43;;;;;;;4.32;1.20;;;;;;;;;;4406525;32;20162;-75